Time;durP1;ratioP1;P1;durP2;ratioP2;P2;SDS_P1;SDS_P2;PMS_P1;PMS_P2;Temp;Humidity;BMP_temperature;BMP_pressure;BME280_temperature;BME280_humidity;BME280_pressure;Samples;Min_cycle;Max_cycle;Signal;HPM_P1;HPM_P2
2021/10/20 00:00:39;;;;;;;7.82;3.35;;;11.40;99.90;;;;;;5016844;28;20076;-82
2021/10/20 00:03:05;;;;;;;8.70;3.88;;;11.30;99.90;;;;;;5018438;28;20026;-82
2021/10/20 00:05:31;;;;;;;6.60;4.05;;;11.30;99.90;;;;;;5017998;28;20029;-85
2021/10/20 00:07:57;;;;;;;7.53;3.95;;;11.30;99.90;;;;;;5033861;28;20026;-83
2021/10/20 00:10:23;;;;;;;7.15;3.90;;;11.30;99.90;;;;;;5017498;28;20025;-86
2021/10/20 00:12:50;;;;;;;8.38;4.15;;;11.30;99.90;;;;;;5017163;28;20028;-85
2021/10/20 00:15:18;;;;;;;5.63;3.35;;;11.20;99.90;;;;;;5033893;28;20076;-85
2021/10/20 00:17:44;;;;;;;5.00;3.22;;;11.20;99.90;;;;;;5033560;28;20025;-84
2021/10/20 00:20:14;;;;;;;8.02;3.65;;;11.30;99.90;;;;;;5017016;28;20032;-84
2021/10/20 00:22:40;;;;;;;9.82;4.00;;;11.30;99.90;;;;;;5017745;28;20029;-84
2021/10/20 00:25:07;;;;;;;7.55;3.70;;;11.30;99.90;;;;;;5017006;28;20022;-81
2021/10/20 00:27:33;;;;;;;7.00;3.75;;;11.20;99.90;;;;;;5017969;28;20033;-85
2021/10/20 00:29:59;;;;;;;6.45;3.65;;;11.10;99.90;;;;;;5017296;28;20470;-85
2021/10/20 00:32:25;;;;;;;6.85;3.30;;;11.10;99.90;;;;;;5033188;28;20406;-84
2021/10/20 00:34:50;;;;;;;7.40;3.53;;;11.10;99.90;;;;;;5016342;28;20029;-85
2021/10/20 00:37:16;;;;;;;5.75;3.55;;;11.10;99.90;;;;;;5016684;28;20022;-85
2021/10/20 00:39:42;;;;;;;6.68;3.17;;;11.10;99.90;;;;;;5016081;28;20375;-86
2021/10/20 00:42:08;;;;;;;5.93;3.67;;;11.20;99.90;;;;;;5017646;28;20065;-85
2021/10/20 00:44:52;;;;;;;7.10;3.15;;;11.20;99.90;;;;;;5016255;28;20409;-85
2021/10/20 00:47:18;;;;;;;8.13;3.28;;;11.20;99.50;;;;;;5017445;28;20018;-85
2021/10/20 00:49:44;;;;;;;8.25;3.17;;;11.30;99.30;;;;;;5015907;28;20025;-85
2021/10/20 00:52:11;;;;;;;4.95;3.15;;;11.30;99.20;;;;;;5017090;28;20021;-85
2021/10/20 00:54:37;;;;;;;7.80;3.20;;;11.30;99.10;;;;;;5016138;28;20024;-85
2021/10/20 00:57:05;;;;;;;7.32;3.08;;;11.30;99.00;;;;;;5016498;28;20052;-85
2021/10/20 00:59:32;;;;;;;6.90;3.15;;;11.30;99.00;;;;;;5016830;28;20080;-88
2021/10/20 01:01:58;;;;;;;7.78;3.30;;;11.30;99.10;;;;;;5017645;28;20037;-86
2021/10/20 01:04:23;;;;;;;8.90;3.60;;;11.30;99.10;;;;;;5032873;28;20451;-86
2021/10/20 01:06:49;;;;;;;12.85;3.20;;;11.20;99.20;;;;;;5032582;28;20022;-85
2021/10/20 01:09:15;;;;;;;5.22;3.00;;;11.20;99.20;;;;;;5033014;28;20084;-86
2021/10/20 01:11:41;;;;;;;6.68;3.15;;;11.30;99.20;;;;;;5017299;28;20026;-85
2021/10/20 01:14:07;;;;;;;6.97;3.78;;;11.20;99.30;;;;;;5032889;28;20037;-86
2021/10/20 01:16:34;;;;;;;6.40;2.92;;;11.30;99.30;;;;;;5032241;28;20018;-86
2021/10/20 01:19:00;;;;;;;4.97;3.10;;;11.30;99.20;;;;;;5032393;28;20518;-85
2021/10/20 01:21:25;;;;;;;5.07;2.80;;;11.30;99.20;;;;;;5032937;28;20061;-83
2021/10/20 01:23:51;;;;;;;4.68;3.00;;;11.30;99.20;;;;;;5031501;28;20267;-83
2021/10/20 01:26:17;;;;;;;4.95;2.90;;;11.30;99.20;;;;;;5032418;28;20037;-83
2021/10/20 01:28:44;;;;;;;4.00;2.80;;;11.30;99.10;;;;;;5032074;28;20463;-83
2021/10/20 01:31:10;;;;;;;5.45;3.33;;;11.30;99.00;;;;;;5016567;28;20030;-83
2021/10/20 01:33:37;;;;;;;6.28;2.53;;;11.30;99.10;;;;;;5016479;28;20022;-82
2021/10/20 01:36:03;;;;;;;5.65;2.63;;;11.30;99.10;;;;;;5032434;28;20105;-81
2021/10/20 01:38:29;;;;;;;5.22;2.90;;;11.20;99.60;;;;;;5016508;28;20026;-82
2021/10/20 01:40:55;;;;;;;4.32;2.72;;;11.10;99.50;;;;;;5032078;28;20376;-81
2021/10/20 01:43:20;;;;;;;5.00;3.28;;;11.00;99.60;;;;;;5032169;28;20026;-81
2021/10/20 01:45:46;;;;;;;6.80;2.70;;;11.10;99.70;;;;;;5031523;28;20026;-84
2021/10/20 01:48:12;;;;;;;6.78;3.05;;;11.00;99.80;;;;;;5031681;28;20033;-85
2021/10/20 01:50:37;;;;;;;4.80;2.50;;;11.00;99.80;;;;;;5031453;28;20489;-84
2021/10/20 01:53:03;;;;;;;5.47;2.85;;;11.00;99.80;;;;;;5031824;28;20022;-84
2021/10/20 01:55:29;;;;;;;8.45;3.30;;;10.90;99.90;;;;;;5031730;28;20053;-84
2021/10/20 01:57:55;;;;;;;7.63;2.90;;;11.00;99.90;;;;;;5031627;28;20097;-83
2021/10/20 02:00:20;;;;;;;5.60;3.35;;;10.90;99.90;;;;;;5016393;28;20356;-86
2021/10/20 02:02:46;;;;;;;5.25;2.83;;;10.90;99.90;;;;;;5031227;28;20025;-86
2021/10/20 02:05:14;;;;;;;5.07;2.70;;;10.90;99.90;;;;;;5016559;28;20021;-86
2021/10/20 02:07:40;;;;;;;8.73;3.35;;;10.80;99.90;;;;;;5031113;28;20045;-86
2021/10/20 02:10:09;;;;;;;5.35;2.65;;;10.80;99.90;;;;;;5031483;28;20022;-86
2021/10/20 02:12:34;;;;;;;5.13;3.15;;;10.80;99.90;;;;;;5015383;28;20057;-87
2021/10/20 02:15:00;;;;;;;3.42;2.35;;;10.70;99.90;;;;;;5031595;28;20060;-85
2021/10/20 02:17:26;;;;;;;4.95;2.80;;;10.70;99.90;;;;;;5031058;28;20026;-84
2021/10/20 02:19:51;;;;;;;7.45;2.55;;;10.70;99.90;;;;;;5031443;28;20466;-84
2021/10/20 02:22:18;;;;;;;4.70;2.88;;;10.70;99.90;;;;;;5031290;28;20057;-84
2021/10/20 02:24:44;;;;;;;4.28;2.97;;;10.70;99.90;;;;;;5030813;28;20089;-85
2021/10/20 02:27:09;;;;;;;5.07;2.83;;;10.80;99.90;;;;;;5031075;28;20096;-84
2021/10/20 02:29:35;;;;;;;9.50;3.03;;;10.80;99.90;;;;;;5015903;28;20033;-86
2021/10/20 02:32:01;;;;;;;7.53;2.90;;;10.90;99.70;;;;;;5015213;28;20068;-84
2021/10/20 02:34:26;;;;;;;4.05;3.00;;;10.90;99.50;;;;;;5031120;28;20018;-86
2021/10/20 02:36:52;;;;;;;8.10;2.83;;;11.00;99.40;;;;;;5015098;28;20076;-86
2021/10/20 02:39:18;;;;;;;5.25;2.60;;;11.00;99.40;;;;;;5015710;28;20462;-86
2021/10/20 02:41:44;;;;;;;4.22;2.33;;;11.00;99.30;;;;;;5014884;28;20030;-86
2021/10/20 02:44:09;;;;;;;4.10;2.45;;;11.00;99.30;;;;;;5031114;28;20430;-86
2021/10/20 02:46:36;;;;;;;5.78;2.90;;;11.00;99.20;;;;;;5015522;28;20026;-85
2021/10/20 02:49:03;;;;;;;5.60;2.78;;;11.00;99.20;;;;;;5031005;28;20029;-85
2021/10/20 02:51:32;;;;;;;5.22;2.88;;;11.00;99.20;;;;;;5014879;28;20444;-85
2021/10/20 02:53:58;;;;;;;4.18;2.67;;;11.00;99.20;;;;;;5030092;28;20120;-86
2021/10/20 02:56:24;;;;;;;4.38;2.75;;;11.00;99.20;;;;;;5030508;28;20080;-85
2021/10/20 02:58:50;;;;;;;3.83;2.53;;;11.00;99.30;;;;;;5030246;28;20057;-85
2021/10/20 03:01:16;;;;;;;6.20;2.60;;;11.00;99.30;;;;;;5015435;28;20028;-85
2021/10/20 03:03:42;;;;;;;5.30;2.95;;;11.00;99.20;;;;;;5030461;28;20026;-85
2021/10/20 03:06:07;;;;;;;5.75;2.83;;;10.90;99.20;;;;;;5015017;28;20101;-85
2021/10/20 03:08:33;;;;;;;4.93;2.63;;;10.90;99.30;;;;;;5030371;28;20018;-85
2021/10/20 03:10:59;;;;;;;4.65;2.60;;;10.90;99.30;;;;;;5014348;28;20100;-85
2021/10/20 03:13:25;;;;;;;7.07;2.80;;;10.90;99.40;;;;;;5030461;28;20026;-85
2021/10/20 03:15:50;;;;;;;6.15;2.95;;;10.90;99.60;;;;;;5029627;28;20040;-85
2021/10/20 03:18:16;;;;;;;5.85;2.97;;;10.80;99.60;;;;;;5014785;28;20078;-85
2021/10/20 03:20:41;;;;;;;3.97;2.70;;;10.80;99.70;;;;;;5029735;28;20486;-86
2021/10/20 03:23:07;;;;;;;6.30;2.80;;;10.80;99.60;;;;;;5015030;28;20092;-86
2021/10/20 03:25:33;;;;;;;5.40;2.60;;;10.80;99.60;;;;;;5014906;28;20467;-86
2021/10/20 03:27:58;;;;;;;5.57;3.00;;;10.80;99.60;;;;;;5014726;28;20026;-86
2021/10/20 03:30:24;;;;;;;3.55;2.53;;;10.80;99.70;;;;;;5028592;28;20040;-86
2021/10/20 03:32:50;;;;;;;4.55;2.78;;;10.70;99.90;;;;;;5013423;28;20403;-86
2021/10/20 03:35:17;;;;;;;4.13;2.80;;;10.70;99.90;;;;;;5013680;28;20049;-86
2021/10/20 03:37:43;;;;;;;4.05;2.97;;;10.80;99.90;;;;;;5029320;28;20018;-86
2021/10/20 03:40:09;;;;;;;5.97;3.17;;;10.80;99.90;;;;;;5013333;28;20029;-86
2021/10/20 03:42:35;;;;;;;5.97;3.25;;;10.80;99.90;;;;;;5013582;28;20030;-86
2021/10/20 03:45:02;;;;;;;3.83;2.92;;;10.80;99.90;;;;;;5012990;28;20029;-86
2021/10/20 03:47:28;;;;;;;6.30;3.20;;;10.80;99.90;;;;;;5013556;28;20030;-85
2021/10/20 03:49:54;;;;;;;7.28;3.10;;;10.70;99.90;;;;;;5013931;28;20455;-86
2021/10/20 03:52:20;;;;;;;4.88;2.95;;;10.70;99.90;;;;;;5013704;28;20366;-86
2021/10/20 03:54:46;;;;;;;5.80;3.00;;;10.70;99.90;;;;;;5012599;28;20022;-86
2021/10/20 03:57:11;;;;;;;4.57;3.15;;;10.70;99.90;;;;;;5029417;28;20026;-86
2021/10/20 03:59:37;;;;;;;5.45;3.20;;;10.70;99.90;;;;;;5029625;28;20030;-86
2021/10/20 04:02:03;;;;;;;5.13;3.00;;;10.70;99.90;;;;;;5013968;28;20455;-86
2021/10/20 04:04:28;;;;;;;7.97;3.28;;;10.60;99.90;;;;;;5013491;28;20060;-85
2021/10/20 04:06:54;;;;;;;5.30;2.92;;;10.50;99.90;;;;;;5013932;28;20377;-86
2021/10/20 04:09:20;;;;;;;4.13;3.00;;;10.40;99.90;;;;;;5030130;28;20026;-85
2021/10/20 04:11:46;;;;;;;4.72;2.85;;;10.40;99.90;;;;;;5014201;28;20026;-86
2021/10/20 04:14:12;;;;;;;4.90;3.00;;;10.40;99.90;;;;;;5030082;28;20084;-86
2021/10/20 04:16:38;;;;;;;7.03;3.58;;;10.40;99.90;;;;;;5030197;28;20409;-86
2021/10/20 04:19:04;;;;;;;5.40;2.67;;;10.30;99.90;;;;;;5013836;28;20033;-86
2021/10/20 04:21:30;;;;;;;4.20;3.17;;;10.30;99.90;;;;;;5014122;28;20030;-85
2021/10/20 04:23:55;;;;;;;5.63;2.78;;;10.30;99.90;;;;;;5029052;28;20021;-85
2021/10/20 04:26:21;;;;;;;6.57;3.00;;;10.40;99.90;;;;;;5029544;28;20470;-86
2021/10/20 04:28:46;;;;;;;5.75;3.20;;;10.40;99.90;;;;;;5029237;28;20037;-86
2021/10/20 04:31:12;;;;;;;5.40;2.70;;;10.40;99.90;;;;;;5030075;28;20425;-85
2021/10/20 04:33:38;;;;;;;5.45;2.90;;;10.40;99.90;;;;;;5014502;28;20033;-84
2021/10/20 04:36:03;;;;;;;6.03;2.92;;;10.40;99.90;;;;;;5014082;28;20133;-85
2021/10/20 04:38:29;;;;;;;6.13;3.05;;;10.40;99.90;;;;;;5013988;28;20032;-83
2021/10/20 04:40:55;;;;;;;4.80;3.22;;;10.40;99.90;;;;;;5030190;28;20029;-86
2021/10/20 04:43:20;;;;;;;6.32;3.30;;;10.30;99.90;;;;;;5017822;28;20061;-86
2021/10/20 04:45:46;;;;;;;6.88;3.00;;;10.30;99.90;;;;;;5032467;28;20026;-87
2021/10/20 04:48:12;;;;;;;7.38;3.20;;;10.40;99.90;;;;;;5015316;28;20022;-84
2021/10/20 04:50:38;;;;;;;5.15;3.03;;;10.40;99.90;;;;;;5032286;28;20038;-86
2021/10/20 04:53:03;;;;;;;5.05;3.05;;;10.30;99.90;;;;;;5016155;28;20026;-86
2021/10/20 04:55:30;;;;;;;4.82;2.70;;;10.30;99.90;;;;;;5017412;28;20045;-85
2021/10/20 04:57:55;;;;;;;5.45;2.90;;;10.30;99.90;;;;;;5015601;28;20026;-86
2021/10/20 05:00:23;;;;;;;5.57;2.80;;;10.40;99.90;;;;;;5015644;28;20383;-86
2021/10/20 05:02:49;;;;;;;6.80;2.70;;;10.40;99.90;;;;;;5016517;28;20030;-86
2021/10/20 05:05:15;;;;;;;5.68;2.58;;;10.30;99.90;;;;;;5017015;28;20041;-86
2021/10/20 05:07:52;;;;;;;9.00;3.20;;;10.30;99.90;;;;;;5016137;28;20125;-86
2021/10/20 05:10:19;;;;;;;5.68;2.67;;;10.20;99.90;;;;;;5016181;28;20043;-87
2021/10/20 05:12:45;;;;;;;5.13;2.92;;;10.20;99.90;;;;;;5015747;28;20026;-88
2021/10/20 05:15:12;;;;;;;6.22;3.38;;;10.20;99.90;;;;;;5016302;28;20474;-87
2021/10/20 05:17:43;;;;;;;6.05;3.15;;;10.10;99.90;;;;;;5016190;28;20463;-87
2021/10/20 05:20:12;;;;;;;4.55;2.88;;;10.10;99.90;;;;;;5014735;28;20031;-83
2021/10/20 05:22:39;;;;;;;6.60;2.90;;;10.10;99.90;;;;;;5015810;28;20106;-83
2021/10/20 05:25:07;;;;;;;4.90;3.00;;;10.10;99.90;;;;;;5016440;28;20036;-83
2021/10/20 05:27:33;;;;;;;6.45;3.20;;;10.00;99.90;;;;;;5017100;28;20025;-83
2021/10/20 05:29:59;;;;;;;6.63;3.25;;;10.00;99.90;;;;;;5015493;28;20057;-83
2021/10/20 05:32:27;;;;;;;6.88;2.90;;;10.00;99.90;;;;;;5015252;28;20018;-82
2021/10/20 05:34:53;;;;;;;4.93;2.67;;;10.20;99.90;;;;;;5016066;28;20026;-87
2021/10/20 05:37:19;;;;;;;5.90;3.10;;;10.20;99.90;;;;;;5015757;28;20018;-86
2021/10/20 05:39:47;;;;;;;7.68;2.70;;;10.20;99.90;;;;;;5014102;28;20125;-87
2021/10/20 05:42:12;;;;;;;6.05;2.92;;;10.30;99.90;;;;;;5028619;28;20033;-85
2021/10/20 05:44:38;;;;;;;6.25;3.20;;;10.20;99.90;;;;;;5030948;28;20026;-87
2021/10/20 05:47:04;;;;;;;3.83;2.67;;;10.20;99.90;;;;;;5013625;28;20049;-89
2021/10/20 05:49:29;;;;;;;7.07;2.72;;;10.30;99.90;;;;;;5031195;28;20116;-89
2021/10/20 05:51:55;;;;;;;7.30;3.40;;;10.30;99.90;;;;;;5014126;28;20109;-89
2021/10/20 05:54:20;;;;;;;5.78;2.85;;;10.20;99.80;;;;;;5015566;28;20350;-88
2021/10/20 05:56:46;;;;;;;9.07;3.40;;;10.20;99.90;;;;;;5014510;28;20534;-88
2021/10/20 05:59:12;;;;;;;8.43;3.15;;;10.20;99.90;;;;;;5031329;28;20034;-88
2021/10/20 06:01:37;;;;;;;6.20;2.90;;;10.30;99.90;;;;;;5016678;28;20032;-85
2021/10/20 06:04:03;;;;;;;6.50;3.17;;;10.30;99.90;;;;;;5031386;28;20386;-85
2021/10/20 06:06:29;;;;;;;4.82;2.80;;;10.40;99.90;;;;;;5015705;28;20026;-79
2021/10/20 06:08:55;;;;;;;6.03;3.42;;;10.40;99.90;;;;;;5014440;28;20040;-80
2021/10/20 06:11:21;;;;;;;6.05;3.45;;;10.40;99.90;;;;;;5015094;28;20018;-79
2021/10/20 06:13:47;;;;;;;5.25;3.03;;;10.40;99.90;;;;;;5031120;28;20429;-78
2021/10/20 06:16:12;;;;;;;9.63;3.72;;;10.50;99.90;;;;;;5031607;28;20021;-79
2021/10/20 06:18:38;;;;;;;5.80;3.25;;;10.60;99.90;;;;;;5031447;28;20362;-78
2021/10/20 06:21:04;;;;;;;6.07;3.38;;;10.70;99.90;;;;;;5031275;28;20029;-78
2021/10/20 06:23:31;;;;;;;7.68;3.85;;;10.70;99.90;;;;;;5031228;28;20060;-78
2021/10/20 06:25:57;;;;;;;10.02;3.53;;;10.80;99.90;;;;;;5030704;28;20026;-78
2021/10/20 06:28:23;;;;;;;6.38;3.45;;;10.90;99.70;;;;;;5015470;28;20033;-79
2021/10/20 06:30:49;;;;;;;5.05;3.33;;;10.90;99.70;;;;;;5030294;28;20030;-84
2021/10/20 06:33:14;;;;;;;6.30;3.35;;;11.00;99.70;;;;;;5030744;28;20049;-83
2021/10/20 06:35:40;;;;;;;6.30;3.15;;;11.10;99.50;;;;;;5031049;28;20030;-83
2021/10/20 06:38:06;;;;;;;5.00;2.83;;;11.10;99.40;;;;;;5029634;28;20022;-83
2021/10/20 06:40:31;;;;;;;6.40;3.20;;;11.00;99.40;;;;;;5014144;28;20030;-84
2021/10/20 06:42:58;;;;;;;7.30;3.45;;;11.10;99.40;;;;;;5013485;28;20038;-84
2021/10/20 06:45:24;;;;;;;5.95;3.25;;;11.10;99.40;;;;;;5010432;28;20054;-83
2021/10/20 06:47:50;;;;;;;5.93;2.90;;;11.10;99.50;;;;;;5013767;28;20014;-84
2021/10/20 06:50:17;;;;;;;6.90;3.50;;;11.10;99.70;;;;;;5013129;28;20034;-84
2021/10/20 06:52:43;;;;;;;5.03;3.10;;;11.10;99.60;;;;;;5029354;28;20028;-82
2021/10/20 06:55:09;;;;;;;9.95;5.32;;;11.10;99.70;;;;;;5028622;28;20033;-82
2021/10/20 06:57:35;;;;;;;10.02;4.68;;;11.10;99.70;;;;;;5012853;28;20109;-86
2021/10/20 07:00:03;;;;;;;10.70;6.25;;;11.20;99.40;;;;;;5028950;28;20129;-85
2021/10/20 07:02:28;;;;;;;12.45;5.60;;;11.30;99.10;;;;;;5029796;28;20025;-82
2021/10/20 07:04:54;;;;;;;5.57;3.50;;;11.40;98.90;;;;;;5014171;28;20026;-84
2021/10/20 07:07:20;;;;;;;7.90;3.85;;;11.40;98.80;;;;;;5029403;28;20037;-83
2021/10/20 07:09:46;;;;;;;6.28;3.35;;;11.40;98.80;;;;;;5013142;28;20885;-83
2021/10/20 07:12:11;;;;;;;7.50;3.47;;;11.50;98.80;;;;;;5029622;28;20128;-83
2021/10/20 07:14:37;;;;;;;11.38;4.18;;;11.50;98.80;;;;;;5010951;28;20103;-82
2021/10/20 07:17:05;;;;;;;7.00;3.85;;;11.60;98.70;;;;;;5012252;28;20026;-83
2021/10/20 07:19:31;;;;;;;4.75;2.85;;;11.60;98.50;;;;;;5012465;28;20462;-83
2021/10/20 07:21:59;;;;;;;5.80;2.80;;;11.70;98.50;;;;;;5012219;28;20046;-85
2021/10/20 07:24:25;;;;;;;5.07;3.03;;;11.70;98.50;;;;;;5030100;28;20125;-86
2021/10/20 07:26:50;;;;;;;6.47;3.10;;;11.70;98.60;;;;;;5014065;28;20054;-85
2021/10/20 07:29:16;;;;;;;5.68;2.97;;;11.80;98.60;;;;;;5014230;28;20463;-85
2021/10/20 07:31:42;;;;;;;4.85;3.10;;;11.80;98.50;;;;;;5012879;28;20040;-85
2021/10/20 07:34:08;;;;;;;7.55;2.83;;;11.90;98.40;;;;;;5029502;28;20121;-85
2021/10/20 07:36:34;;;;;;;5.40;2.95;;;11.90;98.30;;;;;;5013088;28;20068;-85
2021/10/20 07:38:59;;;;;;;5.38;3.00;;;12.00;98.30;;;;;;5012594;28;20032;-85
2021/10/20 07:41:25;;;;;;;5.93;3.20;;;12.10;98.10;;;;;;5013441;28;20041;-84
2021/10/20 07:43:51;;;;;;;6.20;2.90;;;12.20;98.00;;;;;;5012611;28;20163;-84
2021/10/20 07:46:16;;;;;;;6.03;2.92;;;12.30;97.70;;;;;;5013347;28;20079;-83
2021/10/20 07:48:42;;;;;;;5.43;2.90;;;12.40;97.50;;;;;;5013956;28;20479;-83
2021/10/20 07:51:07;;;;;;;5.20;2.60;;;12.50;97.40;;;;;;5029523;28;20260;-84
2021/10/20 07:53:33;;;;;;;6.72;2.47;;;12.60;97.20;;;;;;5013957;28;20026;-85
2021/10/20 07:55:58;;;;;;;5.53;2.60;;;12.70;97.30;;;;;;5012374;28;20049;-83
2021/10/20 07:58:24;;;;;;;4.68;2.70;;;12.70;97.00;;;;;;5013841;28;20061;-84
2021/10/20 08:00:50;;;;;;;4.78;2.72;;;12.80;97.10;;;;;;5029214;28;20549;-87
2021/10/20 08:03:16;;;;;;;4.10;2.72;;;12.90;97.00;;;;;;5022089;28;20037;-85
2021/10/20 08:05:41;;;;;;;5.85;2.25;;;13.00;96.70;;;;;;5013383;28;20034;-84
2021/10/20 08:08:10;;;;;;;4.20;2.25;;;13.10;96.70;;;;;;5028336;28;20293;-83
2021/10/20 08:10:36;;;;;;;5.72;2.70;;;13.20;96.20;;;;;;5028285;28;20039;-82
2021/10/20 08:13:02;;;;;;;7.90;2.47;;;13.30;95.80;;;;;;5027930;28;20026;-82
2021/10/20 08:15:28;;;;;;;5.78;2.42;;;13.30;95.90;;;;;;5028797;28;20026;-85
2021/10/20 08:17:56;;;;;;;4.93;2.20;;;13.40;95.90;;;;;;5016716;28;20025;-86
2021/10/20 08:20:23;;;;;;;3.70;2.22;;;13.50;95.80;;;;;;5032536;28;20025;-83
2021/10/20 08:22:49;;;;;;;4.65;2.55;;;13.60;95.60;;;;;;5017093;28;20123;-85
2021/10/20 08:25:16;;;;;;;4.57;2.25;;;13.70;95.50;;;;;;5031768;28;20092;-84
2021/10/20 08:27:42;;;;;;;3.67;2.28;;;13.70;95.60;;;;;;5032488;28;20121;-84
2021/10/20 08:30:17;;;;;;;6.43;2.58;;;13.80;95.40;;;;;;5030864;28;20123;-84
2021/10/20 08:32:45;;;;;;;4.40;2.30;;;13.80;95.50;;;;;;5029930;28;20033;-84
2021/10/20 08:35:15;;;;;;;3.53;1.92;;;13.90;95.50;;;;;;5032083;28;20360;-84
2021/10/20 08:37:42;;;;;;;4.60;2.30;;;14.00;95.70;;;;;;5015728;28;20534;-87
2021/10/20 08:40:09;;;;;;;3.55;2.30;;;14.10;95.30;;;;;;5016469;28;20037;-85
2021/10/20 08:42:36;;;;;;;4.22;2.10;;;14.30;95.00;;;;;;5016166;28;20379;-84
2021/10/20 08:45:02;;;;;;;4.40;2.30;;;14.40;94.80;;;;;;5015136;28;20026;-85
2021/10/20 08:47:29;;;;;;;3.65;2.17;;;14.50;94.50;;;;;;5016028;28;20045;-85
2021/10/20 08:49:55;;;;;;;5.75;2.30;;;14.70;94.50;;;;;;5015020;28;20041;-85
2021/10/20 08:52:21;;;;;;;4.47;2.00;;;14.90;94.30;;;;;;5016550;28;20116;-85
2021/10/20 08:54:47;;;;;;;4.85;2.13;;;15.00;94.20;;;;;;5031435;28;20030;-85
2021/10/20 08:57:13;;;;;;;5.60;2.33;;;15.10;93.70;;;;;;5031313;28;20029;-84
2021/10/20 08:59:39;;;;;;;5.30;2.10;;;15.20;93.90;;;;;;5015561;28;20116;-85
2021/10/20 09:02:05;;;;;;;2.75;1.98;;;15.30;93.70;;;;;;5031781;28;20061;-85
2021/10/20 09:04:32;;;;;;;3.55;1.85;;;15.50;93.30;;;;;;5032012;28;20030;-83
2021/10/20 09:07:01;;;;;;;4.60;2.00;;;15.60;93.10;;;;;;5030402;28;20037;-82
2021/10/20 09:09:33;;;;;;;4.95;2.05;;;15.70;92.80;;;;;;5017338;28;20467;-83
2021/10/20 09:11:59;;;;;;;;;;;15.90;92.70;;;;;;5015398;28;20387;-80
2021/10/20 09:14:25;;;;;;;2.60;1.80;;;16.00;92.40;;;;;;5015470;28;19905;-80
2021/10/20 09:16:51;;;;;;;2.28;1.60;;;16.10;92.40;;;;;;5014494;28;20033;-81
2021/10/20 09:19:20;;;;;;;6.82;2.63;;;16.20;92.00;;;;;;5015866;28;20026;-80
2021/10/20 09:22:02;;;;;;;4.97;2.40;;;16.30;92.00;;;;;;5015280;28;20026;-80
2021/10/20 09:24:40;;;;;;;4.50;2.28;;;16.40;91.70;;;;;;5015260;28;20026;-79
2021/10/20 09:27:25;;;;;;;3.03;2.15;;;16.50;91.50;;;;;;5013991;28;20042;-79
2021/10/20 09:30:14;;;;;;;2.65;1.70;;;16.60;91.40;;;;;;5016158;28;20467;-80
2021/10/20 09:32:41;;;;;;;3.60;2.15;;;16.60;91.40;;;;;;5015144;28;20053;-79
2021/10/20 09:35:12;;;;;;;3.05;1.63;;;16.60;91.40;;;;;;5014630;28;20065;-80
2021/10/20 09:37:41;;;;;;;2.67;1.92;;;16.70;91.30;;;;;;5014293;28;20029;-80
2021/10/20 09:40:09;;;;;;;2.95;1.90;;;16.80;91.50;;;;;;5014257;28;20022;-81
2021/10/20 09:42:44;;;;;;;2.90;1.55;;;16.90;91.40;;;;;;5016134;28;20030;-78
2021/10/20 09:45:12;;;;;;;2.72;1.80;;;16.90;91.10;;;;;;5014109;28;20040;-79
2021/10/20 09:47:38;;;;;;;8.63;2.10;;;17.00;91.10;;;;;;5014222;28;20030;-80
2021/10/20 09:50:06;;;;;;;3.22;1.77;;;17.10;91.00;;;;;;5014114;28;20489;-80
2021/10/20 09:52:47;;;;;;;3.88;1.90;;;17.20;90.90;;;;;;5014836;28;20116;-80
2021/10/20 09:55:25;;;;;;;3.95;1.50;;;17.20;90.70;;;;;;5015234;28;20222;-79
2021/10/20 09:57:55;;;;;;;3.00;1.40;;;17.30;90.60;;;;;;5014466;28;20034;-80
2021/10/20 10:00:20;;;;;;;3.42;1.65;;;17.40;90.40;;;;;;5014207;28;20130;-79
2021/10/20 10:02:46;;;;;;;2.45;1.90;;;17.50;90.30;;;;;;5014518;28;20065;-80
2021/10/20 10:05:12;;;;;;;2.92;1.58;;;17.60;90.30;;;;;;5014966;28;20229;-80
2021/10/20 10:07:38;;;;;;;3.50;2.10;;;17.70;90.40;;;;;;5015590;28;20034;-80
2021/10/20 10:10:04;;;;;;;2.50;1.83;;;17.70;90.70;;;;;;5013381;28;20391;-80
2021/10/20 10:12:32;;;;;;;2.83;1.92;;;17.70;90.60;;;;;;5015639;28;20379;-79
2021/10/20 10:15:04;;;;;;;4.72;1.75;;;17.70;90.20;;;;;;5013592;28;20025;-80
2021/10/20 10:17:32;;;;;;;3.20;2.08;;;17.80;90.00;;;;;;5014146;28;20037;-79
2021/10/20 10:20:15;;;;;;;2.75;1.90;;;17.90;89.70;;;;;;5013072;28;20096;-80
2021/10/20 10:22:53;;;;;;;2.80;1.67;;;18.00;90.00;;;;;;5015118;28;20054;-79
2021/10/20 10:25:39;;;;;;;3.17;1.85;;;18.10;89.20;;;;;;5015005;28;20026;-79
2021/10/20 10:28:07;;;;;;;2.85;1.83;;;18.20;89.10;;;;;;5013715;28;20035;-79
2021/10/20 10:30:50;;;;;;;2.40;1.70;;;18.20;89.50;;;;;;5013538;28;20390;-79
2021/10/20 10:33:22;;;;;;;3.63;2.00;;;18.30;89.50;;;;;;4993917;28;20061;-79
2021/10/20 10:36:10;;;;;;;2.95;1.60;;;18.40;88.70;;;;;;4995883;28;20030;-79
2021/10/20 10:38:52;;;;;;;4.72;1.63;;;18.50;88.00;;;;;;4995038;28;20101;-79
2021/10/20 10:41:23;;;;;;;2.78;1.80;;;18.70;88.50;;;;;;4997642;28;20117;-80
2021/10/20 10:44:04;;;;;;;4.85;1.60;;;18.70;88.70;;;;;;5014093;28;20022;-79
2021/10/20 10:46:34;;;;;;;2.42;1.70;;;18.90;87.80;;;;;;5013784;28;20097;-80
2021/10/20 10:49:02;;;;;;;2.83;1.77;;;18.90;87.80;;;;;;5013192;28;20067;-80
2021/10/20 10:51:28;;;;;;;5.43;1.77;;;19.10;85.80;;;;;;5013307;28;20216;-79
2021/10/20 10:53:59;;;;;;;3.03;1.40;;;19.20;86.20;;;;;;5013222;28;20391;-81
2021/10/20 10:56:25;;;;;;;2.63;1.73;;;19.40;84.80;;;;;;5014594;28;20046;-80
2021/10/20 10:59:09;;;;;;;2.50;1.58;;;19.50;84.90;;;;;;5013197;28;20270;-81
2021/10/20 11:01:44;;;;;;;2.17;1.30;;;19.70;84.10;;;;;;5013198;28;20034;-79
2021/10/20 11:04:26;;;;;;;3.58;1.52;;;19.80;82.40;;;;;;5014158;28;20037;-81
2021/10/20 11:06:53;;;;;;;;;;;20.00;82.40;;;;;;5015071;28;20034;-81
2021/10/20 11:09:31;;;;;;;3.53;1.27;;;20.10;80.90;;;;;;5013395;28;20004;-80
2021/10/20 11:11:59;;;;;;;1.85;1.30;;;20.20;82.40;;;;;;5014084;28;20088;-83
2021/10/20 11:14:27;;;;;;;2.65;1.58;;;20.30;79.60;;;;;;5012540;28;20030;-81
2021/10/20 11:17:06;;;;;;;5.03;1.60;;;20.30;80.90;;;;;;5013199;28;20026;-84
2021/10/20 11:19:32;;;;;;;4.18;1.40;;;20.50;80.20;;;;;;5013188;28;20021;-80
2021/10/20 11:21:59;;;;;;;3.72;1.40;;;20.60;79.00;;;;;;5012730;28;20117;-81
2021/10/20 11:24:25;;;;;;;2.33;1.35;;;20.70;79.20;;;;;;5012739;28;20423;-80
2021/10/20 11:26:54;;;;;;;2.70;1.02;;;20.70;78.10;;;;;;5013189;28;20052;-81
2021/10/20 11:29:20;;;;;;;2.55;1.30;;;20.70;77.90;;;;;;5013294;28;20030;-80
2021/10/20 11:31:54;;;;;;;2.63;1.30;;;20.70;77.80;;;;;;5013183;28;20109;-81
2021/10/20 11:34:26;;;;;;;3.20;1.40;;;20.60;77.60;;;;;;5013637;28;20025;-81
2021/10/20 11:36:52;;;;;;;3.85;1.52;;;20.50;77.00;;;;;;5013050;28;20073;-81
2021/10/20 11:39:18;;;;;;;1.88;1.27;;;20.40;78.10;;;;;;5013712;28;20041;-80
2021/10/20 11:42:01;;;;;;;7.70;1.58;;;20.30;78.50;;;;;;5013605;28;20030;-81
2021/10/20 11:44:28;;;;;;;3.30;1.60;;;20.20;78.30;;;;;;5013888;28;20066;-81
2021/10/20 11:46:55;;;;;;;2.20;1.20;;;20.10;79.50;;;;;;5013137;28;20088;-82
2021/10/20 11:49:22;;;;;;;3.03;1.30;;;20.10;79.10;;;;;;5014043;28;20025;-81
2021/10/20 11:51:49;;;;;;;3.90;1.60;;;20.00;79.40;;;;;;5015622;28;20492;-80
2021/10/20 11:54:16;;;;;;;3.65;1.58;;;20.00;79.30;;;;;;5015679;28;20037;-80
2021/10/20 11:56:47;;;;;;;3.33;1.30;;;20.00;79.70;;;;;;5017747;28;20074;-80
2021/10/20 11:59:17;;;;;;;;;;;20.00;79.50;;;;;;5017564;28;20040;-81
2021/10/20 12:01:42;;;;;;;2.10;1.20;;;19.90;79.00;;;;;;5013304;28;20000;-82
2021/10/20 12:04:08;;;;;;;6.57;1.42;;;19.90;79.50;;;;;;5013108;28;20077;-79
2021/10/20 12:06:34;;;;;;;4.13;1.60;;;19.90;80.20;;;;;;5017769;28;20033;-79
2021/10/20 12:08:59;;;;;;;3.70;1.50;;;19.80;80.60;;;;;;5018128;28;20072;-85
2021/10/20 12:11:25;;;;;;;3.40;1.35;;;19.80;80.30;;;;;;5016844;28;20032;-84
2021/10/20 12:13:51;;;;;;;8.30;1.60;;;19.80;80.10;;;;;;5016725;28;20033;-86
2021/10/20 12:16:20;;;;;;;2.22;1.50;;;19.80;80.30;;;;;;5015121;28;20467;-85
2021/10/20 12:18:47;;;;;;;1.65;1.50;;;19.80;80.40;;;;;;5032186;28;20034;-87
2021/10/20 12:21:15;;;;;;;2.35;1.52;;;19.70;80.90;;;;;;5016133;28;20022;-84
2021/10/20 12:23:43;;;;;;;3.13;1.38;;;19.70;80.90;;;;;;5017397;28;20023;-83
2021/10/20 12:26:09;;;;;;;2.15;1.30;;;19.70;80.70;;;;;;5032477;28;20037;-84
2021/10/20 12:28:37;;;;;;;2.58;2.15;;;19.70;80.90;;;;;;5014757;28;20034;-85
2021/10/20 12:31:10;;;;;;;2.85;1.23;;;19.80;81.10;;;;;;5015381;28;20025;-84
2021/10/20 12:33:42;;;;;;;3.83;1.63;;;19.80;80.90;;;;;;5017313;28;20482;-85
2021/10/20 12:36:11;;;;;;;2.92;1.30;;;19.90;80.60;;;;;;5015975;28;20030;-85
2021/10/20 12:38:38;;;;;;;2.83;1.17;;;19.90;80.60;;;;;;5030026;28;20026;-83
2021/10/20 12:41:11;;;;;;;5.10;1.80;;;19.90;81.30;;;;;;5031983;28;20120;-82
2021/10/20 12:43:37;;;;;;;3.72;1.67;;;19.80;81.10;;;;;;5015717;28;20034;-85
2021/10/20 12:46:06;;;;;;;3.20;1.50;;;19.80;81.70;;;;;;5016439;28;20022;-84
2021/10/20 12:48:33;;;;;;;3.50;1.65;;;19.70;81.80;;;;;;5016788;28;20034;-82